Time;durP1;ratioP1;P1;durP2;ratioP2;P2;SDS_P1;SDS_P2;PMS_P1;PMS_P2;Temp;Humidity;BMP_temperature;BMP_pressure;BME280_temperature;BME280_humidity;BME280_pressure;Samples;Min_cycle;Max_cycle;Signal;HPM_P1;HPM_P2
2021/07/03 00:00:07;;;;;;;47.10;28.83;;;;;;;13.99;100.00;101246.19;5007451;28;20052;-80
2021/07/03 00:02:32;;;;;;;40.38;27.80;;;;;;;13.97;100.00;101249.06;5007782;28;20080;-80
2021/07/03 00:04:57;;;;;;;40.20;27.00;;;;;;;13.93;100.00;101247.75;5021795;28;20191;-79
2021/07/03 00:07:23;;;;;;;40.47;26.98;;;;;;;13.90;100.00;101245.41;5025201;28;20046;-79
2021/07/03 00:09:48;;;;;;;45.97;27.65;;;;;;;13.87;100.00;101243.06;4994678;28;20046;-79
2021/07/03 00:12:13;;;;;;;48.78;29.08;;;;;;;13.84;100.00;101253.31;5005459;28;20049;-79
2021/07/03 00:14:39;;;;;;;48.22;30.15;;;;;;;13.83;100.00;101246.25;4984440;28;20631;-79
2021/07/03 00:17:04;;;;;;;50.17;31.05;;;;;;;13.82;100.00;101242.72;5004566;28;20040;-79
2021/07/03 00:19:30;;;;;;;52.70;32.17;;;;;;;13.87;100.00;101242.22;5025179;28;20037;-79
2021/07/03 00:21:56;;;;;;;54.08;32.50;;;;;;;13.87;100.00;101244.91;5003721;28;20145;-79
2021/07/03 00:24:22;;;;;;;50.85;30.92;;;;;;;13.84;100.00;101239.84;5003638;28;20413;-79
2021/07/03 00:26:47;;;;;;;54.40;32.20;;;;;;;13.80;100.00;101241.22;5014177;28;20042;-79
2021/07/03 00:29:13;;;;;;;50.15;31.63;;;;;;;13.83;100.00;101239.00;4972088;28;20041;-79
2021/07/03 00:31:38;;;;;;;46.63;29.52;;;;;;;13.80;100.00;101241.22;5006913;28;20112;-79
2021/07/03 00:34:04;;;;;;;50.15;31.98;;;;;;;13.77;100.00;101243.25;5021740;28;20045;-80
2021/07/03 00:36:29;;;;;;;46.63;29.50;;;;;;;13.72;100.00;101234.00;5012749;28;20119;-80
2021/07/03 00:38:55;;;;;;;53.72;32.05;;;;;;;13.69;100.00;101240.56;5006233;28;20080;-80
2021/07/03 00:41:21;;;;;;;48.92;30.95;;;;;;;13.67;100.00;101239.91;5015694;28;20144;-79
2021/07/03 00:43:46;;;;;;;50.50;32.30;;;;;;;13.64;100.00;101242.13;4997307;28;20128;-79
2021/07/03 00:46:12;;;;;;;48.13;31.75;;;;;;;13.60;100.00;101247.00;5004614;28;20037;-80
2021/07/03 00:48:38;;;;;;;52.92;32.70;;;;;;;13.53;100.00;101240.63;4992324;28;20033;-79
2021/07/03 00:51:04;;;;;;;44.10;29.48;;;;;;;13.50;100.00;101246.38;5024422;28;20045;-79
2021/07/03 00:53:29;;;;;;;45.90;30.88;;;;;;;13.46;100.00;101248.56;5014171;28;20115;-79
2021/07/03 00:55:55;;;;;;;46.80;30.42;;;;;;;13.44;100.00;101247.06;5027734;28;20107;-79
2021/07/03 00:58:21;;;;;;;44.47;29.23;;;;;;;13.42;100.00;101255.31;5031253;28;20041;-80
2021/07/03 01:00:47;;;;;;;49.33;30.88;;;;;;;13.38;100.00;101253.13;5009548;28;20405;-79
2021/07/03 01:03:12;;;;;;;48.72;30.77;;;;;;;13.32;100.00;101242.03;5032902;28;20102;-79
2021/07/03 01:05:37;;;;;;;46.05;28.98;;;;;;;13.30;100.00;101248.59;5011413;28;20037;-79
2021/07/03 01:08:03;;;;;;;43.25;26.73;;;;;;;13.29;100.00;101255.84;5005779;28;20064;-79
2021/07/03 01:10:30;;;;;;;48.08;30.60;;;;;;;13.25;100.00;101261.72;5016183;28;20725;-79
2021/07/03 01:12:56;;;;;;;42.30;29.00;;;;;;;13.23;100.00;101261.88;5025774;28;20045;-79
2021/07/03 01:15:22;;;;;;;43.55;27.65;;;;;;;13.23;100.00;101261.03;5031181;28;20068;-80
2021/07/03 01:17:48;;;;;;;43.58;27.90;;;;;;;13.17;100.00;101253.63;5024430;28;20041;-79
2021/07/03 01:20:15;;;;;;;42.53;27.88;;;;;;;13.13;100.00;101257.69;5017533;28;20631;-79
2021/07/03 01:22:42;;;;;;;43.20;27.95;;;;;;;13.08;100.00;101263.56;5023988;28;20141;-79
2021/07/03 01:25:08;;;;;;;42.80;28.45;;;;;;;13.07;100.00;101257.34;5021378;28;20040;-79
2021/07/03 01:27:34;;;;;;;40.53;26.73;;;;;;;13.03;100.00;101261.41;5023085;28;20484;-80
2021/07/03 01:30:00;;;;;;;43.20;27.85;;;;;;;13.00;100.00;101260.88;5022242;28;20041;-79
2021/07/03 01:32:25;;;;;;;43.28;26.80;;;;;;;12.96;100.00;101257.69;5021180;28;20042;-79
2021/07/03 01:34:51;;;;;;;42.50;27.50;;;;;;;12.94;100.00;101256.16;5024862;28;20051;-79
2021/07/03 01:37:16;;;;;;;45.25;28.15;;;;;;;12.91;100.00;101268.13;4980191;28;20077;-79
2021/07/03 01:39:42;;;;;;;41.38;27.15;;;;;;;12.91;100.00;101267.28;5022191;28;20132;-79
2021/07/03 01:42:07;;;;;;;41.20;26.02;;;;;;;12.85;100.00;101269.63;5021446;28;20056;-80
2021/07/03 01:44:34;;;;;;;41.55;26.27;;;;;;;12.81;100.00;101257.53;4998365;28;20052;-79
2021/07/03 01:47:01;;;;;;;37.88;25.48;;;;;;;12.78;100.00;101257.84;5027954;28;20646;-80
2021/07/03 01:49:28;;;;;;;42.38;25.58;;;;;;;12.75;100.00;101252.81;4994547;28;20049;-80
2021/07/03 01:51:55;;;;;;;38.78;26.20;;;;;;;12.70;100.00;101241.69;5006904;28;20095;-79
2021/07/03 01:54:21;;;;;;;38.08;24.73;;;;;;;12.65;100.00;101247.56;5016376;28;20048;-79
2021/07/03 01:56:57;;;;;;;37.60;25.08;;;;;;;12.63;100.00;101244.22;5016921;28;20363;-80
2021/07/03 01:59:30;;;;;;;37.90;24.42;;;;;;;12.58;100.00;101245.72;5009195;28;20041;-79
2021/07/03 02:01:57;;;;;;;37.50;24.38;;;;;;;12.54;100.00;101244.34;5024586;28;20048;-79
2021/07/03 02:04:23;;;;;;;38.97;24.73;;;;;;;12.56;100.00;101253.13;4999238;28;20503;-79
2021/07/03 02:06:49;;;;;;;39.55;24.17;;;;;;;12.53;100.00;101253.44;4991268;28;20042;-79
2021/07/03 02:09:15;;;;;;;38.65;23.77;;;;;;;12.52;100.00;101243.69;5019809;28;20045;-80
2021/07/03 02:11:41;;;;;;;41.30;24.85;;;;;;;12.51;100.00;101245.53;5027021;28;20227;-79
2021/07/03 02:14:06;;;;;;;37.40;24.80;;;;;;;12.51;100.00;101247.38;4989552;28;20537;-79
2021/07/03 02:16:32;;;;;;;41.53;24.83;;;;;;;12.48;100.00;101250.41;5009635;28;20033;-79
2021/07/03 02:18:57;;;;;;;36.90;23.65;;;;;;;12.45;100.00;101246.19;5009618;28;20060;-79
2021/07/03 02:21:23;;;;;;;37.55;23.38;;;;;;;12.43;100.00;101245.53;5007908;28;20041;-79
2021/07/03 02:23:48;;;;;;;38.38;23.60;;;;;;;12.38;100.00;101247.88;5007921;28;20417;-79
2021/07/03 02:26:13;;;;;;;38.17;23.42;;;;;;;12.36;100.00;101250.72;5028649;28;20076;-79
2021/07/03 02:28:39;;;;;;;35.53;22.50;;;;;;;12.34;100.00;101249.19;5031735;28;20041;-79
2021/07/03 02:31:05;;;;;;;39.33;23.83;;;;;;;12.26;100.00;101247.34;5011073;28;20116;-79
2021/07/03 02:33:31;;;;;;;40.83;24.40;;;;;;;12.24;100.00;101252.03;5013926;28;20455;-80
2021/07/03 02:35:56;;;;;;;37.35;23.98;;;;;;;12.24;100.00;101251.19;5027396;28;20048;-80
2021/07/03 02:38:22;;;;;;;38.67;23.65;;;;;;;12.19;100.00;101247.13;5014326;28;20037;-79
2021/07/03 02:40:48;;;;;;;42.22;23.85;;;;;;;12.14;100.00;101249.50;4991978;28;20050;-80
2021/07/03 02:43:13;;;;;;;41.85;25.67;;;;;;;12.16;100.00;101244.78;4983281;28;20770;-79
2021/07/03 02:45:39;;;;;;;41.00;24.20;;;;;;;12.11;100.00;101239.06;5015476;28;20471;-80
2021/07/03 02:48:05;;;;;;;38.67;24.38;;;;;;;12.13;100.00;101237.03;5027692;28;20041;-80
2021/07/03 02:50:30;;;;;;;36.97;23.75;;;;;;;12.10;100.00;101234.66;5025303;28;20568;-80
2021/07/03 02:52:55;;;;;;;38.72;23.35;;;;;;;12.11;100.00;101238.19;5007816;28;20036;-80
2021/07/03 02:55:21;;;;;;;34.67;22.80;;;;;;;12.07;100.00;101242.22;5026238;28;20694;-80
2021/07/03 02:57:47;;;;;;;39.95;24.05;;;;;;;12.07;100.00;101247.63;5009783;28;20056;-80
2021/07/03 03:00:14;;;;;;;35.33;23.27;;;;;;;12.07;100.00;101239.53;5009204;28;20065;-81
2021/07/03 03:02:39;;;;;;;34.53;23.08;;;;;;;12.09;100.00;101248.31;5025245;28;20045;-80
2021/07/03 03:05:07;;;;;;;37.85;23.40;;;;;;;12.04;100.00;101250.63;5018349;28;20045;-80
2021/07/03 03:07:34;;;;;;;41.45;23.98;;;;;;;12.08;100.00;101244.75;5025142;28;20053;-81
2021/07/03 03:10:00;;;;;;;39.95;25.42;;;;;;;12.12;100.00;101253.34;5004152;28;20133;-80
2021/07/03 03:12:25;;;;;;;35.78;23.33;;;;;;;12.12;100.00;101246.13;5026833;28;20124;-80
2021/07/03 03:14:51;;;;;;;38.40;24.25;;;;;;;12.12;100.00;101248.81;5009389;28;20069;-80
2021/07/03 03:17:16;;;;;;;35.80;23.00;;;;;;;12.13;100.00;101241.56;5024281;28;20041;-80
2021/07/03 03:19:41;;;;;;;38.22;24.52;;;;;;;12.12;100.00;101245.28;5006906;28;20187;-80
2021/07/03 03:22:07;;;;;;;34.83;22.73;;;;;;;12.08;100.00;101243.91;5025831;28;20041;-80
2021/07/03 03:24:32;;;;;;;36.83;25.08;;;;;;;12.09;100.00;101251.00;5014860;28;20092;-79
2021/07/03 03:26:57;;;;;;;38.58;24.40;;;;;;;12.08;100.00;101250.13;5009221;28;20038;-78
2021/07/03 03:29:23;;;;;;;37.83;24.10;;;;;;;12.08;100.00;101247.44;5007061;28;20044;-80
2021/07/03 03:31:48;;;;;;;39.13;24.50;;;;;;;12.08;100.00;101249.28;4997385;28;20299;-79
2021/07/03 03:34:14;;;;;;;43.35;26.27;;;;;;;12.04;100.00;101248.78;5030010;28;20086;-79
2021/07/03 03:36:39;;;;;;;43.85;26.45;;;;;;;12.06;100.00;101249.47;5032249;28;20037;-79
2021/07/03 03:39:04;;;;;;;44.97;27.00;;;;;;;12.06;100.00;101243.25;5025842;28;20041;-79
2021/07/03 03:41:30;;;;;;;40.92;26.90;;;;;;;12.05;100.00;101245.06;5025462;28;20478;-79
2021/07/03 03:43:57;;;;;;;47.80;29.13;;;;;;;12.07;100.00;101243.06;5002532;28;20076;-79
2021/07/03 03:46:23;;;;;;;48.53;28.77;;;;;;;12.05;100.00;101244.22;4998033;28;20171;-79
2021/07/03 03:48:49;;;;;;;45.53;28.25;;;;;;;12.05;100.00;101233.47;4989899;28;20037;-80
2021/07/03 03:51:14;;;;;;;44.28;27.83;;;;;;;12.03;100.00;101233.66;5021767;28;20513;-79
2021/07/03 03:53:40;;;;;;;45.63;28.60;;;;;;;12.03;100.00;101228.28;5027920;28;20525;-79
2021/07/03 03:56:05;;;;;;;47.30;27.73;;;;;;;12.04;100.00;101231.81;5023858;28;20367;-80
2021/07/03 03:58:31;;;;;;;46.92;28.98;;;;;;;12.02;100.00;101231.13;5025597;28;20049;-80
2021/07/03 04:00:56;;;;;;;47.30;27.70;;;;;;;12.02;100.00;101229.25;5008375;28;20057;-79
2021/07/03 04:03:21;;;;;;;51.28;27.98;;;;;;;11.99;100.00;101223.38;4980495;28;20038;-79
2021/07/03 04:05:47;;;;;;;48.20;27.92;;;;;;;11.99;100.00;101223.38;4985916;28;20050;-81
2021/07/03 04:08:12;;;;;;;47.28;28.17;;;;;;;11.99;100.00;101220.69;5018883;28;20062;-79
2021/07/03 04:10:38;;;;;;;50.08;28.63;;;;;;;12.01;100.00;101216.81;5009825;28;20298;-79
2021/07/03 04:13:03;;;;;;;48.85;28.40;;;;;;;12.04;100.00;101210.28;5008587;28;20029;-80
2021/07/03 04:15:29;;;;;;;42.50;26.65;;;;;;;12.01;100.00;101210.63;5025513;28;20094;-79
2021/07/03 04:17:54;;;;;;;48.55;28.50;;;;;;;12.01;100.00;101208.75;5026489;28;20052;-79
2021/07/03 04:20:19;;;;;;;52.85;30.95;;;;;;;12.05;100.00;101203.88;5003394;28;20084;-79
2021/07/03 04:22:45;;;;;;;56.22;34.28;;;;;;;12.10;100.00;101193.47;5024761;28;20037;-79
2021/07/03 04:25:12;;;;;;;59.22;33.67;;;;;;;12.13;100.00;101187.78;5008349;28;20115;-79
2021/07/03 04:27:39;;;;;;;54.90;31.67;;;;;;;12.16;100.00;101198.19;5024247;28;20042;-79
2021/07/03 04:30:06;;;;;;;51.83;30.83;;;;;;;12.16;100.00;101196.34;5008473;28;20052;-79
2021/07/03 04:32:31;;;;;;;54.70;32.28;;;;;;;12.19;100.00;101197.88;5023353;28;20061;-79
2021/07/03 04:34:57;;;;;;;57.95;32.95;;;;;;;12.25;100.00;101197.19;4996875;28;20095;-80
2021/07/03 04:37:22;;;;;;;56.65;33.78;;;;;;;12.30;100.00;101194.88;5001439;28;20160;-80
2021/07/03 04:39:47;;;;;;;60.55;35.53;;;;;;;12.32;100.00;101198.25;5001904;28;20053;-79
2021/07/03 04:42:13;;;;;;;67.47;37.22;;;;;;;12.39;100.00;101193.88;5000229;28;20762;-79
2021/07/03 04:44:38;;;;;;;72.43;38.75;;;;;;;12.45;100.00;101194.22;4997279;28;20138;-79
2021/07/03 04:47:03;;;;;;;78.55;42.90;;;;;;;12.51;100.00;101196.22;4988051;28;20409;-79
2021/07/03 04:49:32;;;;;;;78.88;43.83;;;;;;;12.59;100.00;101193.56;5008058;28;20052;-79
2021/07/03 04:51:58;;;;;;;77.82;43.08;;;;;;;12.67;100.00;101196.25;5005095;28;20033;-79
2021/07/03 04:54:23;;;;;;;76.85;41.85;;;;;;;12.74;100.00;101191.84;4984679;28;20494;-78
2021/07/03 04:56:49;;;;;;;75.00;41.78;;;;;;;12.81;100.00;101192.03;5004460;28;20033;-79
2021/07/03 04:59:14;;;;;;;78.53;42.67;;;;;;;12.89;100.00;101192.03;5000112;28;20038;-79
2021/07/03 05:01:39;;;;;;;70.20;41.75;;;;;;;12.98;100.00;101190.19;5016213;28;20045;-79
2021/07/03 05:04:05;;;;;;;76.60;42.08;;;;;;;13.06;100.00;101185.63;5006709;28;20046;-79
2021/07/03 05:06:30;;;;;;;79.30;43.75;;;;;;;13.14;100.00;101198.22;5004708;28;20052;-80
2021/07/03 05:08:56;;;;;;;77.30;40.80;;;;;;;13.21;100.00;101199.22;5022034;28;20141;-80
2021/07/03 05:11:21;;;;;;;69.93;40.83;;;;;;;13.29;100.00;101185.78;5003932;28;20441;-79
2021/07/03 05:13:47;;;;;;;72.15;40.25;;;;;;;13.37;100.00;101192.16;5022035;28;20041;-80
2021/07/03 05:16:12;;;;;;;73.88;41.47;;;;;;;13.44;100.00;101188.59;5013160;28;20041;-80
2021/07/03 05:18:38;;;;;;;72.15;42.00;;;;;;;13.52;100.00;101179.63;5006189;28;20041;-80
2021/07/03 05:21:03;;;;;;;67.07;40.67;;;;;;;13.60;100.00;101184.97;4988002;28;20480;-79
2021/07/03 05:23:28;;;;;;;69.63;40.45;;;;;;;13.69;100.00;101185.78;4984202;28;20462;-79
2021/07/03 05:25:57;;;;;;;73.03;41.72;;;;;;;13.80;100.00;101182.72;5006730;28;20047;-80
2021/07/03 05:28:22;;;;;;;71.78;42.38;;;;;;;13.89;100.00;101186.22;5015463;28;20034;-79
2021/07/03 05:30:48;;;;;;;69.18;40.75;;;;;;;14.02;100.00;101186.50;5003940;28;20072;-79
2021/07/03 05:33:14;;;;;;;77.88;42.88;;;;;;;14.19;100.00;101181.84;4995210;28;20059;-79
2021/07/03 05:35:39;;;;;;;72.32;40.47;;;;;;;14.33;100.00;101186.47;5021683;28;20577;-80
2021/07/03 05:38:05;;;;;;;73.32;42.08;;;;;;;14.41;100.00;101181.00;5006035;28;20132;-79
2021/07/03 05:40:30;;;;;;;72.43;40.78;;;;;;;14.49;100.00;101185.50;5002174;28;20041;-80
2021/07/03 05:42:56;;;;;;;69.30;41.28;;;;;;;14.55;100.00;101195.59;4998815;28;20042;-80
2021/07/03 05:45:21;;;;;;;70.40;41.90;;;;;;;14.60;100.00;101195.91;4986925;28;20102;-80
2021/07/03 05:47:51;;;;;;;72.85;42.22;;;;;;;14.64;100.00;101191.84;4995751;28;20034;-80
2021/07/03 05:50:22;;;;;;;68.38;41.63;;;;;;;14.72;100.00;101195.47;5010479;28;20521;-80
2021/07/03 05:52:48;;;;;;;68.90;41.72;;;;;;;14.77;100.00;101195.78;5009119;28;20044;-81
2021/07/03 05:55:14;;;;;;;67.97;38.60;;;;;;;14.87;100.00;101199.06;5009872;28;20060;-80
2021/07/03 05:57:40;;;;;;;67.95;42.10;;;;;;;14.99;100.00;101200.31;4991060;28;20117;-81
2021/07/03 06:00:07;;;;;;;62.38;39.47;;;;;;;15.10;100.00;101196.31;5008377;28;20080;-80
2021/07/03 06:02:32;;;;;;;68.35;39.75;;;;;;;15.27;100.00;101202.38;4990756;28;20036;-79
2021/07/03 06:04:58;;;;;;;62.03;39.50;;;;;;;15.37;100.00;101200.28;5010715;28;20041;-80
2021/07/03 06:07:25;;;;;;;61.63;38.08;;;;;;;15.50;100.00;101202.31;5029210;28;20036;-80
2021/07/03 06:09:51;;;;;;;57.13;35.20;;;;;;;15.54;100.00;101204.47;5037955;28;20341;-79
2021/07/03 06:12:17;;;;;;;55.85;37.20;;;;;;;15.61;100.00;101203.72;5028154;28;20045;-80
2021/07/03 06:14:42;;;;;;;56.08;34.88;;;;;;;15.65;100.00;101210.41;4889349;28;20056;-80
2021/07/03 06:17:13;;;;;;;57.25;37.10;;;;;;;15.65;100.00;101202.28;4886113;28;119898;-81
2021/07/03 06:19:38;;;;;;;62.17;38.17;;;;;;;15.65;100.00;101205.00;4795260;28;20070;-81
2021/07/03 06:22:04;;;;;;;57.58;36.03;;;;;;;15.67;100.00;101208.38;4954293;28;20755;-81
2021/07/03 06:24:30;;;;;;;55.13;33.83;;;;;;;15.64;100.00;101215.00;4962798;28;20053;-81
2021/07/03 06:26:56;;;;;;;56.60;33.83;;;;;;;15.67;100.00;101230.00;4981387;28;20034;-80
2021/07/03 06:29:21;;;;;;;54.15;33.63;;;;;;;15.72;100.00;101222.22;4955271;28;20054;-82
2021/07/03 06:31:46;;;;;;;55.42;32.40;;;;;;;15.80;100.00;101216.69;4961771;28;20046;-81
2021/07/03 06:34:12;;;;;;;55.38;33.38;;;;;;;15.91;100.00;101212.66;4974708;28;20050;-80
2021/07/03 06:36:37;;;;;;;55.13;33.40;;;;;;;16.02;100.00;101221.16;4971880;28;20069;-80
2021/07/03 06:39:04;;;;;;;62.28;34.05;;;;;;;16.15;100.00;101216.91;4991721;28;20057;-80
2021/07/03 06:41:30;;;;;;;57.75;35.33;;;;;;;16.27;100.00;101219.97;4982146;28;20634;-81
2021/07/03 06:43:55;;;;;;;54.30;34.08;;;;;;;16.37;100.00;101209.66;4968863;28;20120;-82
2021/07/03 06:46:22;;;;;;;55.70;34.05;;;;;;;16.46;100.00;101208.50;4991545;28;20383;-80
2021/07/03 06:48:47;;;;;;;57.03;34.88;;;;;;;16.58;100.00;101217.78;4995246;28;20052;-80
2021/07/03 06:51:13;;;;;;;53.78;32.42;;;;;;;16.66;100.00;101223.09;4999519;28;20129;-80
2021/07/03 06:53:38;;;;;;;54.15;32.95;;;;;;;16.75;100.00;101212.97;4979024;28;20204;-80
2021/07/03 06:56:04;;;;;;;50.72;32.08;;;;;;;16.82;100.00;101207.63;4999236;28;20042;-80
2021/07/03 06:58:29;;;;;;;47.22;30.50;;;;;;;16.89;100.00;101214.78;4999761;28;20787;-80
2021/07/03 07:00:55;;;;;;;54.30;31.00;;;;;;;16.97;100.00;101212.94;4979573;28;20491;-79
2021/07/03 07:03:20;;;;;;;47.15;31.83;;;;;;;17.02;100.00;101205.06;4978438;28;20399;-80
2021/07/03 07:05:45;;;;;;;49.38;30.38;;;;;;;17.09;100.00;101208.66;4972559;28;20034;-80
2021/07/03 07:08:11;;;;;;;49.90;31.30;;;;;;;17.15;100.00;101207.91;4980612;28;20074;-80
2021/07/03 07:10:36;;;;;;;46.50;29.75;;;;;;;17.22;100.00;101213.38;4978445;28;20034;-81
2021/07/03 07:13:06;;;;;;;49.03;30.13;;;;;;;17.29;100.00;101203.38;4972706;28;20049;-81
2021/07/03 07:15:33;;;;;;;49.22;31.73;;;;;;;17.36;100.00;101207.81;5001068;28;20054;-79
2021/07/03 07:17:58;;;;;;;47.40;30.02;;;;;;;17.43;100.00;101207.84;5009265;28;20045;-80
2021/07/03 07:20:24;;;;;;;50.88;32.88;;;;;;;17.52;100.00;101201.25;4984388;28;20375;-79
2021/07/03 07:22:49;;;;;;;48.80;32.22;;;;;;;17.59;100.00;101195.84;4983181;28;20042;-80
2021/07/03 07:25:15;;;;;;;51.90;31.88;;;;;;;17.70;100.00;101200.72;4971968;28;20610;-80
2021/07/03 07:27:40;;;;;;;50.08;30.40;;;;;;;17.76;100.00;101197.19;4978479;28;20052;-81
2021/07/03 07:30:06;;;;;;;43.78;28.95;;;;;;;17.85;100.00;101194.34;4979038;28;20029;-80
2021/07/03 07:32:32;;;;;;;38.42;25.98;;;;;;;17.91;100.00;101196.25;4963305;28;20038;-80
2021/07/03 07:34:58;;;;;;;41.90;26.58;;;;;;;17.95;100.00;101187.50;4996316;28;20045;-80
2021/07/03 07:37:23;;;;;;;42.83;26.05;;;;;;;18.00;100.00;101192.31;4960133;28;20502;-82
2021/07/03 07:39:49;;;;;;;39.05;25.80;;;;;;;18.04;100.00;101190.88;4953924;28;20042;-80
2021/07/03 07:42:14;;;;;;;35.72;23.95;;;;;;;18.10;100.00;101189.22;4960721;28;20047;-82
2021/07/03 07:44:40;;;;;;;35.33;23.27;;;;;;;18.18;100.00;101189.00;4955629;28;20475;-81
2021/07/03 07:47:05;;;;;;;36.38;24.35;;;;;;;18.25;100.00;101189.88;4962048;28;20477;-82
2021/07/03 07:49:30;;;;;;;37.03;23.90;;;;;;;18.33;100.00;101191.59;4955925;28;20135;-80
2021/07/03 07:51:56;;;;;;;36.42;22.95;;;;;;;18.39;99.19;101185.31;4950449;28;20043;-81
2021/07/03 07:54:21;;;;;;;38.20;23.95;;;;;;;18.48;98.38;101184.91;4951445;28;20434;-82
2021/07/03 07:56:47;;;;;;;37.42;24.27;;;;;;;18.56;97.01;101186.59;4965077;28;20061;-82
2021/07/03 07:59:12;;;;;;;37.13;23.48;;;;;;;18.62;95.71;101184.94;4945001;28;20571;-81
2021/07/03 08:01:38;;;;;;;34.05;22.40;;;;;;;18.69;94.67;101183.03;4965627;28;20126;-81
2021/07/03 08:04:03;;;;;;;35.28;21.45;;;;;;;18.77;93.52;101179.31;4930149;28;20055;-82
2021/07/03 08:06:29;;;;;;;32.45;20.23;;;;;;;18.85;92.91;101179.13;4965136;28;20419;-82
2021/07/03 08:08:54;;;;;;;32.15;20.40;;;;;;;18.89;91.69;101183.91;4945558;28;20043;-82
2021/07/03 08:11:19;;;;;;;30.42;20.20;;;;;;;18.97;90.59;101177.44;4951085;28;20047;-82
2021/07/03 08:13:45;;;;;;;29.70;18.55;;;;;;;19.04;90.18;101175.53;4966882;28;20129;-82
2021/07/03 08:16:10;;;;;;;32.13;18.90;;;;;;;19.12;89.32;101175.31;4937960;28;20542;-83
2021/07/03 08:18:36;;;;;;;25.98;17.48;;;;;;;19.20;88.11;101178.88;4932581;28;20058;-83
2021/07/03 08:21:01;;;;;;;25.38;17.45;;;;;;;19.28;87.81;101182.22;4939984;28;20030;-83
2021/07/03 08:23:27;;;;;;;29.48;19.20;;;;;;;19.39;87.88;101184.28;4946160;28;20050;-82
2021/07/03 08:25:52;;;;;;;27.92;16.73;;;;;;;19.50;87.24;101174.59;4937796;28;20123;-81
2021/07/03 08:28:17;;;;;;;24.85;16.35;;;;;;;19.58;86.59;101171.66;4948405;28;20042;-79
2021/07/03 08:30:43;;;;;;;27.15;16.15;;;;;;;19.69;86.06;101170.19;4932671;28;20137;-82
2021/07/03 08:33:09;;;;;;;25.13;16.45;;;;;;;19.80;86.03;101174.13;4961797;28;20074;-79
2021/07/03 08:35:34;;;;;;;26.10;16.50;;;;;;;19.91;85.66;101170.72;4948110;28;20038;-82
2021/07/03 08:37:59;;;;;;;23.35;14.95;;;;;;;19.97;83.96;101161.69;4949762;28;20093;-80
2021/07/03 08:40:25;;;;;;;22.80;15.07;;;;;;;20.05;82.95;101168.75;4913173;28;20039;-79
2021/07/03 08:42:50;;;;;;;22.52;16.98;;;;;;;20.14;82.06;101172.06;4965879;28;20046;-80
2021/07/03 08:45:16;;;;;;;24.08;15.23;;;;;;;20.23;81.75;101168.03;4948052;28;20054;-81
2021/07/03 08:47:44;;;;;;;24.27;15.93;;;;;;;20.33;81.61;101162.09;4962365;28;20533;-80
2021/07/03 08:50:13;;;;;;;21.63;14.88;;;;;;;20.43;81.86;101168.75;4946996;28;20175;-80
2021/07/03 08:52:38;;;;;;;23.98;16.27;;;;;;;20.52;81.36;101172.03;4988730;28;20064;-80
2021/07/03 08:55:20;;;;;;;23.30;17.02;;;;;;;20.61;80.31;101176.19;4983368;28;20042;-80
2021/07/03 08:57:47;;;;;;;25.05;16.58;;;;;;;20.70;79.67;101174.03;4952457;28;20193;-81
2021/07/03 09:00:14;;;;;;;19.38;14.95;;;;;;;20.79;79.49;101175.41;4983637;28;20108;-79
2021/07/03 09:02:44;;;;;;;27.95;17.17;;;;;;;20.88;79.52;101165.88;4986164;28;20056;-80
2021/07/03 09:05:20;;;;;;;23.13;16.60;;;;;;;20.99;78.66;101171.69;4966258;28;20050;-79
2021/07/03 09:07:46;;;;;;;29.02;18.42;;;;;;;21.07;78.44;101158.59;4976440;28;20046;-80
2021/07/03 09:10:11;;;;;;;28.50;19.75;;;;;;;21.16;78.15;101164.59;4955068;28;20057;-80
2021/07/03 09:12:38;;;;;;;31.17;21.05;;;;;;;21.23;77.55;101167.25;4944231;28;20141;-79
2021/07/03 09:15:18;;;;;;;28.63;19.67;;;;;;;21.31;77.26;101164.22;4951905;28;20062;-79
2021/07/03 09:18:01;;;;;;;26.35;18.45;;;;;;;21.38;77.33;101157.66;4968447;28;20026;-79
2021/07/03 09:20:36;;;;;;;27.17;19.55;;;;;;;21.42;73.13;101149.84;4958127;28;20053;-79
2021/07/03 09:23:07;;;;;;;22.48;17.73;;;;;;;21.50;71.18;101146.81;4959875;28;20140;-80
2021/07/03 09:25:34;;;;;;;29.02;18.55;;;;;;;21.61;71.41;101140.59;4975949;28;20053;-80
2021/07/03 09:28:08;;;;;;;28.02;19.02;;;;;;;21.62;70.09;101141.41;4984064;28;20035;-79
2021/07/03 09:30:33;;;;;;;29.13;19.38;;;;;;;21.61;67.46;101131.56;4969585;28;20051;-81
2021/07/03 09:32:58;;;;;;;29.77;19.15;;;;;;;21.63;68.51;101129.44;4983021;28;20042;-81
2021/07/03 09:35:24;;;;;;;27.95;18.60;;;;;;;21.70;70.36;101130.19;4985184;28;20046;-80
2021/07/03 09:37:49;;;;;;;27.75;19.88;;;;;;;21.70;71.04;101135.66;5000295;28;20066;-80
2021/07/03 09:40:16;;;;;;;29.25;21.48;;;;;;;21.67;71.22;101129.81;4994773;28;20042;-80
2021/07/03 09:42:42;;;;;;;30.55;20.17;;;;;;;21.54;69.80;101136.25;4990737;28;20038;-80
2021/07/03 09:45:09;;;;;;;29.02;20.40;;;;;;;21.61;71.38;101131.56;4968600;28;20046;-79
2021/07/03 09:47:34;;;;;;;26.17;20.27;;;;;;;;;;4979355;28;20050;-80
2021/07/03 09:50:12;;;;;;;27.45;19.40;;;;;;;21.87;72.55;101135.84;4967793;28;20450;-80
2021/07/03 09:52:38;;;;;;;28.07;20.03;;;;;;;21.91;72.13;101137.06;4981226;28;20766;-80
2021/07/03 09:55:09;;;;;;;27.35;19.65;;;;;;;22.08;73.57;101129.03;4972943;28;20286;-80
2021/07/03 09:57:36;;;;;;;30.90;21.70;;;;;;;22.24;72.58;101120.22;4970879;28;20042;-81
2021/07/03 10:00:06;;;;;;;29.73;19.98;;;;;;;22.29;70.49;101122.22;4996790;28;20252;-81
2021/07/03 10:02:33;;;;;;;25.20;19.35;;;;;;;22.45;70.05;101126.19;4978210;28;20076;-80
2021/07/03 10:04:59;;;;;;;28.73;20.77;;;;;;;22.41;67.99;101123.13;4974450;28;20077;-80
2021/07/03 10:07:34;;;;;;;29.17;20.70;;;;;;;22.38;67.73;101120.00;4968076;28;20078;-80
2021/07/03 10:10:07;;;;;;;25.95;20.02;;;;;;;22.48;67.93;101123.00;4968327;28;20043;-80
2021/07/03 10:12:39;;;;;;;27.92;18.95;;;;;;;22.58;68.87;101125.97;4945478;28;20495;-80
2021/07/03 10:15:05;;;;;;;25.42;18.60;;;;;;;22.76;69.47;101122.31;4964953;28;20162;-80
2021/07/03 10:17:34;;;;;;;26.98;18.58;;;;;;;22.85;66.29;101125.53;4972746;28;20482;-80
2021/07/03 10:19:59;;;;;;;22.63;17.15;;;;;;;22.97;66.13;101118.19;4989598;28;20097;-81
2021/07/03 10:22:33;;;;;;;22.83;17.48;;;;;;;23.05;66.96;101120.56;4972110;28;20434;-80
2021/07/03 10:25:11;;;;;;;24.30;18.27;;;;;;;23.08;64.31;101117.34;4958936;28;20055;-81
2021/07/03 10:27:48;;;;;;;26.08;18.63;;;;;;;23.19;65.93;101111.03;4965128;28;20559;-80
2021/07/03 10:30:25;;;;;;;23.10;18.50;;;;;;;23.27;66.99;101114.44;4968308;28;20034;-81
2021/07/03 10:33:18;;;;;;;22.83;17.65;;;;;;;23.43;67.88;101108.22;4962060;28;20050;-81
2021/07/03 10:35:53;;;;;;;22.13;17.33;;;;;;;23.52;63.23;101105.94;4979055;28;20515;-81
2021/07/03 10:38:21;;;;;;;25.40;19.13;;;;;;;23.64;64.31;101106.75;4966905;28;20480;-81
2021/07/03 10:40:49;;;;;;;23.13;17.23;;;;;;;23.64;60.88;101106.75;4989147;28;20045;-81
2021/07/03 10:43:15;;;;;;;22.07;18.23;;;;;;;23.62;62.80;101107.00;4971814;28;20136;-81
2021/07/03 10:45:51;;;;;;;22.85;17.83;;;;;;;23.67;62.77;101110.91;4990838;28;20640;-81
2021/07/03 10:48:20;;;;;;;23.88;17.50;;;;;;;23.64;62.92;101102.09;4977438;28;20054;-81
2021/07/03 10:50:47;;;;;;;26.88;19.70;;;;;;;23.65;62.94;101103.78;4973656;28;20051;-82
2021/07/03 10:53:20;;;;;;;29.27;22.05;;;;;;;23.53;60.37;101104.88;4993361;28;20030;-81
2021/07/03 10:55:46;;;;;;;27.77;20.75;;;;;;;23.51;62.99;101091.44;4968663;28;20050;-80
2021/07/03 10:58:13;;;;;;;27.67;21.05;;;;;;;23.56;63.72;101102.50;4990802;28;20045;-81
2021/07/03 11:00:39;;;;;;;25.30;20.88;;;;;;;23.53;60.95;101100.22;4987397;28;20042;-81